sensor_id;sensor_type;location;lat;lon;timestamp;pressure;altitude;pressure_sealevel;temperature;humidity
9676;BME280;4876;42.656;23.292;2022-12-07T00:01:04;94324.63;;;5.58;98.30
9676;BME280;4876;42.656;23.292;2022-12-07T00:03:34;94321.56;;;5.75;98.25
9676;BME280;4876;42.656;23.292;2022-12-07T00:06:02;94321.78;;;6.02;96.34
9676;BME280;4876;42.656;23.292;2022-12-07T00:08:30;94320.03;;;5.74;96.66
9676;BME280;4876;42.656;23.292;2022-12-07T00:11:01;94316.78;;;5.82;96.57
9676;BME280;4876;42.656;23.292;2022-12-07T00:13:28;94306.50;;;5.90;95.96
9676;BME280;4876;42.656;23.292;2022-12-07T00:15:55;94307.25;;;5.24;97.27
9676;BME280;4876;42.656;23.292;2022-12-07T00:18:22;94311.56;;;5.34;100.00
9676;BME280;4876;42.656;23.292;2022-12-07T00:20:50;94310.03;;;5.57;98.55
9676;BME280;4876;42.656;23.292;2022-12-07T00:23:17;94299.16;;;5.26;98.74
9676;BME280;4876;42.656;23.292;2022-12-07T00:25:43;94308.00;;;5.01;100.00
9676;BME280;4876;42.656;23.292;2022-12-07T00:28:10;94312.78;;;5.18;100.00
9676;BME280;4876;42.656;23.292;2022-12-07T00:30:37;94313.94;;;5.35;100.00
9676;BME280;4876;42.656;23.292;2022-12-07T00:33:04;94314.81;;;5.50;100.00
9676;BME280;4876;42.656;23.292;2022-12-07T00:35:31;94315.25;;;5.57;100.00
9676;BME280;4876;42.656;23.292;2022-12-07T00:37:59;94316.34;;;5.75;99.01
9676;BME280;4876;42.656;23.292;2022-12-07T00:40:25;94306.16;;;5.78;96.40
9676;BME280;4876;42.656;23.292;2022-12-07T00:42:52;94309.09;;;5.72;96.80
9676;BME280;4876;42.656;23.292;2022-12-07T00:45:19;94314.81;;;5.50;98.40
9676;BME280;4876;42.656;23.292;2022-12-07T00:47:46;94307.47;;;5.28;100.00
9676;BME280;4876;42.656;23.292;2022-12-07T00:50:13;94314.41;;;5.37;100.00
9676;BME280;4876;42.656;23.292;2022-12-07T00:52:39;94303.84;;;5.53;100.00
9676;BME280;4876;42.656;23.292;2022-12-07T00:55:08;94304.91;;;5.71;100.00
9676;BME280;4876;42.656;23.292;2022-12-07T00:57:35;94304.91;;;5.71;99.02
9676;BME280;4876;42.656;23.292;2022-12-07T01:00:02;94306.91;;;5.79;99.02
9676;BME280;4876;42.656;23.292;2022-12-07T01:02:28;94309.66;;;5.87;98.06
9676;BME280;4876;42.656;23.292;2022-12-07T01:04:55;94302.09;;;5.91;97.58
9676;BME280;4876;42.656;23.292;2022-12-07T01:07:22;94307.09;;;6.06;97.14
9676;BME280;4876;42.656;23.292;2022-12-07T01:09:49;94300.06;;;6.07;96.24
9676;BME280;4876;42.656;23.292;2022-12-07T01:12:17;94308.09;;;6.10;95.34
9676;BME280;4876;42.656;23.292;2022-12-07T01:14:43;94294.41;;;6.00;96.24
9676;BME280;4876;42.656;23.292;2022-12-07T01:17:10;94300.88;;;6.02;95.90
9676;BME280;4876;42.656;23.292;2022-12-07T01:19:37;94294.47;;;5.71;97.71
9676;BME280;4876;42.656;23.292;2022-12-07T01:22:04;94297.47;;;5.59;98.99
9676;BME280;4876;42.656;23.292;2022-12-07T01:24:31;94291.25;;;5.79;99.08
9676;BME280;4876;42.656;23.292;2022-12-07T01:26:57;94287.25;;;5.86;98.28
9676;BME280;4876;42.656;23.292;2022-12-07T01:29:26;94286.34;;;5.96;97.10
9676;BME280;4876;42.656;23.292;2022-12-07T01:31:52;94289.19;;;6.00;96.30
9676;BME280;4876;42.656;23.292;2022-12-07T01:34:19;94289.41;;;6.03;95.57
9676;BME280;4876;42.656;23.292;2022-12-07T01:36:46;94279.22;;;6.02;96.52
9676;BME280;4876;42.656;23.292;2022-12-07T01:39:13;94280.53;;;6.04;96.57
9676;BME280;4876;42.656;23.292;2022-12-07T01:41:40;94288.19;;;6.14;95.93
9676;BME280;4876;42.656;23.292;2022-12-07T01:44:28;94299.91;;;6.17;94.69
9676;BME280;4876;42.656;23.292;2022-12-07T01:46:57;94285.81;;;6.18;94.02
9676;BME280;4876;42.656;23.292;2022-12-07T01:49:31;94289.00;;;6.15;93.98
9676;BME280;4876;42.656;23.292;2022-12-07T01:52:07;94287.72;;;6.12;94.65
9676;BME280;4876;42.656;23.292;2022-12-07T01:54:37;94275.38;;;6.18;94.48
9676;BME280;4876;42.656;23.292;2022-12-07T01:57:04;94282.63;;;6.21;94.05
9676;BME280;4876;42.656;23.292;2022-12-07T01:59:34;94263.72;;;6.10;94.62
9676;BME280;4876;42.656;23.292;2022-12-07T02:02:03;94262.31;;;6.18;94.03
9676;BME280;4876;42.656;23.292;2022-12-07T02:04:32;94263.84;;;6.19;95.13
9676;BME280;4876;42.656;23.292;2022-12-07T02:06:59;94264.03;;;6.09;95.66
9676;BME280;4876;42.656;23.292;2022-12-07T02:09:26;94259.47;;;5.96;96.19
9676;BME280;4876;42.656;23.292;2022-12-07T02:11:53;94272.97;;;6.03;96.70
9676;BME280;4876;42.656;23.292;2022-12-07T02:14:21;94271.50;;;5.97;96.98
9676;BME280;4876;42.656;23.292;2022-12-07T02:17:01;94279.69;;;5.85;97.20
9676;BME280;4876;42.656;23.292;2022-12-07T02:20:02;94276.56;;;6.07;96.93
9676;BME280;4876;42.656;23.292;2022-12-07T02:25:33;94272.88;;;6.27;94.51
9676;BME280;4876;42.656;23.292;2022-12-07T02:28:12;94260.47;;;6.00;95.13
9676;BME280;4876;42.656;23.292;2022-12-07T02:30:48;94264.53;;;5.87;96.35
9676;BME280;4876;42.656;23.292;2022-12-07T02:33:19;94265.63;;;6.05;96.04
9676;BME280;4876;42.656;23.292;2022-12-07T02:35:55;94261.13;;;6.10;95.59
9676;BME280;4876;42.656;23.292;2022-12-07T02:38:31;94260.47;;;6.00;95.18
9676;BME280;4876;42.656;23.292;2022-12-07T02:41:06;94264.50;;;6.11;94.44
9676;BME280;4876;42.656;23.292;2022-12-07T02:43:39;94266.75;;;6.17;93.36
9676;BME280;4876;42.656;23.292;2022-12-07T02:46:10;94259.69;;;6.18;92.61
9676;BME280;4876;42.656;23.292;2022-12-07T02:48:39;94265.97;;;6.17;93.37
9676;BME280;4876;42.656;23.292;2022-12-07T02:51:07;94267.47;;;6.23;92.81
9676;BME280;4876;42.656;23.292;2022-12-07T02:53:36;94253.81;;;6.26;92.15
9676;BME280;4876;42.656;23.292;2022-12-07T02:56:08;94248.34;;;6.09;92.42
9676;BME280;4876;42.656;23.292;2022-12-07T02:58:50;94246.28;;;6.06;93.29
9676;BME280;4876;42.656;23.292;2022-12-07T03:01:28;94241.22;;;5.96;93.58
9676;BME280;4876;42.656;23.292;2022-12-07T03:04:05;94237.00;;;5.76;94.51
9676;BME280;4876;42.656;23.292;2022-12-07T03:06:39;94241.53;;;5.70;95.04
9676;BME280;4876;42.656;23.292;2022-12-07T03:09:13;94213.25;;;5.58;95.66
9676;BME280;4876;42.656;23.292;2022-12-07T03:11:44;94229.19;;;5.76;95.17
9676;BME280;4876;42.656;23.292;2022-12-07T03:14:17;94228.84;;;5.82;94.68
9676;BME280;4876;42.656;23.292;2022-12-07T03:16:51;94229.19;;;5.76;94.70
9676;BME280;4876;42.656;23.292;2022-12-07T03:19:21;94231.25;;;5.79;94.46
9676;BME280;4876;42.656;23.292;2022-12-07T03:21:54;94239.69;;;5.89;93.40
9676;BME280;4876;42.656;23.292;2022-12-07T03:24:26;94228.47;;;5.89;92.59
9676;BME280;4876;42.656;23.292;2022-12-07T03:26:59;94234.75;;;5.88;92.61
9676;BME280;4876;42.656;23.292;2022-12-07T03:29:30;94236.66;;;5.82;92.61
9676;BME280;4876;42.656;23.292;2022-12-07T03:32:04;94238.72;;;5.85;92.72
9676;BME280;4876;42.656;23.292;2022-12-07T03:34:38;94236.06;;;5.90;92.06
9676;BME280;4876;42.656;23.292;2022-12-07T03:37:11;94244.53;;;6.01;91.68
9676;BME280;4876;42.656;23.292;2022-12-07T03:39:41;94228.16;;;5.96;91.45
9676;BME280;4876;42.656;23.292;2022-12-07T03:42:12;94228.59;;;6.03;91.91
9676;BME280;4876;42.656;23.292;2022-12-07T03:44:39;94228.94;;;5.96;91.12
9676;BME280;4876;42.656;23.292;2022-12-07T03:47:12;94234.38;;;6.00;91.21
9676;BME280;4876;42.656;23.292;2022-12-07T03:49:43;94199.06;;;5.83;90.67
9676;BME280;4876;42.656;23.292;2022-12-07T03:52:17;94245.81;;;6.04;91.09
9676;BME280;4876;42.656;23.292;2022-12-07T03:54:49;94227.91;;;5.97;90.68
9676;BME280;4876;42.656;23.292;2022-12-07T03:57:18;94227.72;;;5.88;91.01
9676;BME280;4876;42.656;23.292;2022-12-07T03:59:46;94227.53;;;5.85;93.17
9676;BME280;4876;42.656;23.292;2022-12-07T04:02:15;94227.19;;;5.91;91.95
9676;BME280;4876;42.656;23.292;2022-12-07T04:04:43;94226.16;;;5.87;91.63
9676;BME280;4876;42.656;23.292;2022-12-07T04:07:10;94223.56;;;5.87;92.12
9676;BME280;4876;42.656;23.292;2022-12-07T04:09:38;94218.91;;;5.84;92.42
9676;BME280;4876;42.656;23.292;2022-12-07T04:12:05;94221.53;;;5.84;92.83
9676;BME280;4876;42.656;23.292;2022-12-07T04:14:32;94210.72;;;5.72;93.16
9676;BME280;4876;42.656;23.292;2022-12-07T04:16:59;94219.94;;;5.83;92.72
9676;BME280;4876;42.656;23.292;2022-12-07T04:19:29;94162.91;;;5.39;92.32
9676;BME280;4876;42.656;23.292;2022-12-07T04:21:57;94230.53;;;5.73;93.50
9676;BME280;4876;42.656;23.292;2022-12-07T04:24:25;94219.03;;;5.74;94.05
9676;BME280;4876;42.656;23.292;2022-12-07T04:26:52;94220.22;;;5.63;93.15
9676;BME280;4876;42.656;23.292;2022-12-07T04:29:19;94227.56;;;5.61;94.24
9676;BME280;4876;42.656;23.292;2022-12-07T04:31:46;94204.84;;;5.43;94.65
9676;BME280;4876;42.656;23.292;2022-12-07T04:34:14;94226.47;;;5.43;95.02
9676;BME280;4876;42.656;23.292;2022-12-07T04:36:43;94233.81;;;5.41;95.24
9676;BME280;4876;42.656;23.292;2022-12-07T04:39:19;94223.66;;;5.39;96.26
9676;BME280;4876;42.656;23.292;2022-12-07T04:41:46;94231.25;;;5.36;97.65
9676;BME280;4876;42.656;23.292;2022-12-07T04:44:14;94235.41;;;5.37;97.35
9676;BME280;4876;42.656;23.292;2022-12-07T04:46:41;94233.16;;;5.30;96.96
9676;BME280;4876;42.656;23.292;2022-12-07T04:49:09;94232.16;;;5.26;97.81
9676;BME280;4876;42.656;23.292;2022-12-07T04:51:36;94231.94;;;5.23;98.84
9676;BME280;4876;42.656;23.292;2022-12-07T04:54:04;94234.25;;;5.24;98.57
9676;BME280;4876;42.656;23.292;2022-12-07T04:56:31;94233.81;;;5.17;100.00
9676;BME280;4876;42.656;23.292;2022-12-07T04:59:00;94220.84;;;5.12;100.00
9676;BME280;4876;42.656;23.292;2022-12-07T05:01:26;94234.25;;;5.24;100.00
9676;BME280;4876;42.656;23.292;2022-12-07T05:03:53;94230.06;;;5.28;100.00
9676;BME280;4876;42.656;23.292;2022-12-07T05:06:20;94236.13;;;5.43;98.95
9676;BME280;4876;42.656;23.292;2022-12-07T05:08:47;94240.59;;;5.18;99.24
9676;BME280;4876;42.656;23.292;2022-12-07T05:11:15;94235.81;;;5.25;99.78
9676;BME280;4876;42.656;23.292;2022-12-07T05:13:56;94239.38;;;5.34;99.81
9676;BME280;4876;42.656;23.292;2022-12-07T05:16:23;94245.63;;;5.33;99.81
9676;BME280;4876;42.656;23.292;2022-12-07T05:18:50;94241.25;;;5.53;99.15
9676;BME280;4876;42.656;23.292;2022-12-07T05:21:17;94241.50;;;5.51;98.44
9676;BME280;4876;42.656;23.292;2022-12-07T05:23:44;94242.22;;;5.57;98.26
9676;BME280;4876;42.656;23.292;2022-12-07T05:26:10;94243.03;;;5.52;98.38
9676;BME280;4876;42.656;23.292;2022-12-07T05:28:39;94239.06;;;5.60;97.59
9676;BME280;4876;42.656;23.292;2022-12-07T05:31:06;94232.13;;;5.50;97.66
9676;BME280;4876;42.656;23.292;2022-12-07T05:33:32;94234.34;;;5.62;96.95
9676;BME280;4876;42.656;23.292;2022-12-07T05:35:59;94235.16;;;5.57;96.38
9676;BME280;4876;42.656;23.292;2022-12-07T05:38:30;94217.81;;;5.48;97.55
9676;BME280;4876;42.656;23.292;2022-12-07T05:41:00;94218.00;;;5.32;97.64
9676;BME280;4876;42.656;23.292;2022-12-07T05:43:27;94223.00;;;5.29;99.57
9676;BME280;4876;42.656;23.292;2022-12-07T05:45:56;94221.59;;;5.36;100.00
9676;BME280;4876;42.656;23.292;2022-12-07T05:48:23;94214.13;;;5.30;99.88
9676;BME280;4876;42.656;23.292;2022-12-07T05:50:50;94205.13;;;5.41;99.22
9676;BME280;4876;42.656;23.292;2022-12-07T05:53:18;94201.31;;;5.52;97.74
9676;BME280;4876;42.656;23.292;2022-12-07T05:55:45;94212.22;;;5.59;95.82
9676;BME280;4876;42.656;23.292;2022-12-07T05:58:11;94218.41;;;5.63;96.97
9676;BME280;4876;42.656;23.292;2022-12-07T06:00:58;94216.97;;;5.71;96.73
9676;BME280;4876;42.656;23.292;2022-12-07T06:03:25;94221.31;;;5.81;95.79
9676;BME280;4876;42.656;23.292;2022-12-07T06:05:52;94207.25;;;5.77;95.15
9676;BME280;4876;42.656;23.292;2022-12-07T06:08:19;94220.25;;;5.82;93.73
9676;BME280;4876;42.656;23.292;2022-12-07T06:10:47;94222.19;;;5.71;94.15
9676;BME280;4876;42.656;23.292;2022-12-07T06:13:35;94223.47;;;5.55;95.23
9676;BME280;4876;42.656;23.292;2022-12-07T06:16:02;94220.69;;;5.46;97.15
9676;BME280;4876;42.656;23.292;2022-12-07T06:18:29;94234.88;;;5.59;97.70
9676;BME280;4876;42.656;23.292;2022-12-07T06:20:56;94240.56;;;5.66;96.47
9676;BME280;4876;42.656;23.292;2022-12-07T06:23:26;94235.41;;;5.37;100.00
9676;BME280;4876;42.656;23.292;2022-12-07T06:25:53;94229.09;;;5.19;100.00
9676;BME280;4876;42.656;23.292;2022-12-07T06:28:19;94239.69;;;5.28;100.00
9676;BME280;4876;42.656;23.292;2022-12-07T06:30:46;94231.41;;;5.45;100.00
9676;BME280;4876;42.656;23.292;2022-12-07T06:33:14;94231.59;;;5.29;100.00
9676;BME280;4876;42.656;23.292;2022-12-07T06:35:41;94235.06;;;5.44;100.00
9676;BME280;4876;42.656;23.292;2022-12-07T06:38:08;94240.34;;;5.38;100.00
9676;BME280;4876;42.656;23.292;2022-12-07T06:40:35;94240.00;;;5.45;100.00
9676;BME280;4876;42.656;23.292;2022-12-07T06:43:01;94242.34;;;5.47;100.00
9676;BME280;4876;42.656;23.292;2022-12-07T06:45:28;94243.66;;;4.96;100.00
9676;BME280;4876;42.656;23.292;2022-12-07T06:47:55;94243.47;;;4.93;100.00
9676;BME280;4876;42.656;23.292;2022-12-07T06:50:23;94243.22;;;4.89;100.00
9676;BME280;4876;42.656;23.292;2022-12-07T06:52:50;94238.66;;;5.05;100.00
9676;BME280;4876;42.656;23.292;2022-12-07T06:55:17;94249.47;;;5.17;100.00
9676;BME280;4876;42.656;23.292;2022-12-07T06:57:44;94255.44;;;5.18;100.00
9676;BME280;4876;42.656;23.292;2022-12-07T07:00:12;94251.84;;;5.37;100.00
9676;BME280;4876;42.656;23.292;2022-12-07T07:02:39;94254.06;;;5.49;100.00
9676;BME280;4876;42.656;23.292;2022-12-07T07:05:06;94242.63;;;5.45;99.62
9676;BME280;4876;42.656;23.292;2022-12-07T07:07:34;94251.16;;;5.51;100.00
9676;BME280;4876;42.656;23.292;2022-12-07T07:10:02;94251.25;;;5.22;100.00
9676;BME280;4876;42.656;23.292;2022-12-07T07:12:29;94251.88;;;5.32;100.00
9676;BME280;4876;42.656;23.292;2022-12-07T07:14:56;94250.88;;;5.52;100.00
9676;BME280;4876;42.656;23.292;2022-12-07T07:17:22;94254.91;;;5.63;100.00
9676;BME280;4876;42.656;23.292;2022-12-07T07:19:49;94253.44;;;5.33;100.00
9676;BME280;4876;42.656;23.292;2022-12-07T07:22:16;94244.34;;;5.31;100.00
9676;BME280;4876;42.656;23.292;2022-12-07T07:24:45;94239.03;;;5.17;100.00
9676;BME280;4876;42.656;23.292;2022-12-07T07:27:12;94254.09;;;5.20;100.00
9676;BME280;4876;42.656;23.292;2022-12-07T07:29:38;94257.38;;;5.31;100.00
9676;BME280;4876;42.656;23.292;2022-12-07T07:32:05;94256.31;;;5.56;100.00
9676;BME280;4876;42.656;23.292;2022-12-07T07:34:33;94262.75;;;5.82;100.00
9676;BME280;4876;42.656;23.292;2022-12-07T07:37:00;94264.69;;;5.96;100.00
9676;BME280;4876;42.656;23.292;2022-12-07T07:39:27;94261.06;;;5.97;100.00
9676;BME280;4876;42.656;23.292;2022-12-07T07:41:55;94263.72;;;6.10;99.96
9676;BME280;4876;42.656;23.292;2022-12-07T07:44:22;94259.47;;;5.96;99.16
9676;BME280;4876;42.656;23.292;2022-12-07T07:46:49;94259.56;;;6.09;99.81
9676;BME280;4876;42.656;23.292;2022-12-07T07:49:15;94257.94;;;5.94;99.58
9676;BME280;4876;42.656;23.292;2022-12-07T07:51:42;94263.44;;;6.12;100.00
9676;BME280;4876;42.656;23.292;2022-12-07T07:54:09;94254.13;;;6.06;100.00
9676;BME280;4876;42.656;23.292;2022-12-07T07:56:36;94262.44;;;6.08;100.00
9676;BME280;4876;42.656;23.292;2022-12-07T07:59:04;94261.16;;;5.86;100.00
9676;BME280;4876;42.656;23.292;2022-12-07T08:01:31;94258.59;;;5.81;100.00
9676;BME280;4876;42.656;23.292;2022-12-07T08:03:58;94254.31;;;5.90;100.00
9676;BME280;4876;42.656;23.292;2022-12-07T08:06:25;94252.84;;;5.84;100.00
9676;BME280;4876;42.656;23.292;2022-12-07T08:08:52;94251.97;;;5.70;100.00
9676;BME280;4876;42.656;23.292;2022-12-07T08:11:19;94251.41;;;5.73;100.00
9676;BME280;4876;42.656;23.292;2022-12-07T08:13:46;94256.94;;;5.90;100.00
9676;BME280;4876;42.656;23.292;2022-12-07T08:16:14;94243.22;;;5.61;99.31
9676;BME280;4876;42.656;23.292;2022-12-07T08:18:42;94253.78;;;5.70;100.00
9676;BME280;4876;42.656;23.292;2022-12-07T08:21:11;94249.63;;;5.92;97.99
9676;BME280;4876;42.656;23.292;2022-12-07T08:23:38;94259.56;;;6.09;96.30
9676;BME280;4876;42.656;23.292;2022-12-07T08:26:08;94257.81;;;6.05;95.44
9676;BME280;4876;42.656;23.292;2022-12-07T08:28:35;94252.09;;;6.03;96.43
9676;BME280;4876;42.656;23.292;2022-12-07T08:31:03;94248.50;;;5.75;96.12
9676;BME280;4876;42.656;23.292;2022-12-07T08:33:32;94252.78;;;5.47;99.40
9676;BME280;4876;42.656;23.292;2022-12-07T08:36:00;94255.78;;;5.35;100.00
9676;BME280;4876;42.656;23.292;2022-12-07T08:38:27;94170.84;;;5.10;100.00
9676;BME280;4876;42.656;23.292;2022-12-07T08:40:54;94245.78;;;5.66;99.89
9676;BME280;4876;42.656;23.292;2022-12-07T08:43:21;94242.66;;;5.64;99.37
9676;BME280;4876;42.656;23.292;2022-12-07T08:45:52;94245.06;;;5.79;99.89
9676;BME280;4876;42.656;23.292;2022-12-07T08:48:22;94246.50;;;5.90;98.43
9676;BME280;4876;42.656;23.292;2022-12-07T08:50:51;94236.78;;;6.15;96.59
9676;BME280;4876;42.656;23.292;2022-12-07T08:53:18;94214.41;;;6.09;94.70
9676;BME280;4876;42.656;23.292;2022-12-07T08:55:46;94238.53;;;6.19;94.89
9676;BME280;4876;42.656;23.292;2022-12-07T08:58:13;94243.75;;;6.01;95.58
9676;BME280;4876;42.656;23.292;2022-12-07T09:00:40;94238.34;;;6.16;95.96
9676;BME280;4876;42.656;23.292;2022-12-07T09:03:07;94234.34;;;6.37;93.94
9676;BME280;4876;42.656;23.292;2022-12-07T09:05:34;94225.69;;;6.23;94.51
9676;BME280;4876;42.656;23.292;2022-12-07T09:08:02;94230.13;;;6.23;94.55
9676;BME280;4876;42.656;23.292;2022-12-07T09:10:29;94224.03;;;6.27;94.39
9676;BME280;4876;42.656;23.292;2022-12-07T09:12:56;94228.47;;;6.27;94.58
9676;BME280;4876;42.656;23.292;2022-12-07T09:15:26;94221.66;;;6.12;94.90
9676;BME280;4876;42.656;23.292;2022-12-07T09:17:53;94212.66;;;6.04;95.59
9676;BME280;4876;42.656;23.292;2022-12-07T09:20:20;94212.81;;;5.89;96.77
9676;BME280;4876;42.656;23.292;2022-12-07T09:22:47;94218.72;;;6.00;97.93
9676;BME280;4876;42.656;23.292;2022-12-07T09:25:16;94216.31;;;5.84;99.15
9676;BME280;4876;42.656;23.292;2022-12-07T09:27:43;94215.38;;;5.75;100.00
9676;BME280;4876;42.656;23.292;2022-12-07T09:30:10;94215.88;;;5.96;100.00
9676;BME280;4876;42.656;23.292;2022-12-07T09:32:37;94213.88;;;6.26;98.28
9676;BME280;4876;42.656;23.292;2022-12-07T09:35:04;94193.69;;;6.31;95.80
9676;BME280;4876;42.656;23.292;2022-12-07T09:37:31;94195.16;;;6.37;94.94
9676;BME280;4876;42.656;23.292;2022-12-07T09:40:00;94202.91;;;6.42;94.51
9676;BME280;4876;42.656;23.292;2022-12-07T09:42:33;94201.03;;;6.29;96.04
9676;BME280;4876;42.656;23.292;2022-12-07T09:45:01;94179.63;;;6.46;95.07
9676;BME280;4876;42.656;23.292;2022-12-07T09:47:29;94189.03;;;6.61;92.96
9676;BME280;4876;42.656;23.292;2022-12-07T09:50:00;94172.66;;;6.55;91.88
9676;BME280;4876;42.656;23.292;2022-12-07T09:52:30;94193.19;;;6.62;91.64
9676;BME280;4876;42.656;23.292;2022-12-07T09:54:57;94191.38;;;6.76;91.86
9676;BME280;4876;42.656;23.292;2022-12-07T09:57:30;94179.66;;;6.73;91.88
9676;BME280;4876;42.656;23.292;2022-12-07T10:00:03;94159.31;;;6.57;91.69
9676;BME280;4876;42.656;23.292;2022-12-07T10:02:36;94187.59;;;6.82;93.52
9676;BME280;4876;42.656;23.292;2022-12-07T10:05:05;94185.88;;;6.91;92.41
9676;BME280;4876;42.656;23.292;2022-12-07T10:07:32;94184.81;;;6.92;92.74
9676;BME280;4876;42.656;23.292;2022-12-07T10:09:59;94173.50;;;6.97;91.62
9676;BME280;4876;42.656;23.292;2022-12-07T10:12:29;94172.97;;;6.95;92.06
9676;BME280;4876;42.656;23.292;2022-12-07T10:15:00;94167.88;;;7.04;92.56
9676;BME280;4876;42.656;23.292;2022-12-07T10:17:38;94164.28;;;7.13;91.78
9676;BME280;4876;42.656;23.292;2022-12-07T10:20:15;94166.28;;;7.44;89.10
9676;BME280;4876;42.656;23.292;2022-12-07T10:23:00;94160.88;;;7.40;88.90
9676;BME280;4876;42.656;23.292;2022-12-07T10:25:30;94144.97;;;7.37;89.70
9676;BME280;4876;42.656;23.292;2022-12-07T10:28:02;94156.38;;;7.54;88.43
9676;BME280;4876;42.656;23.292;2022-12-07T10:30:30;94138.56;;;7.43;88.58
9676;BME280;4876;42.656;23.292;2022-12-07T10:32:58;94140.31;;;7.47;89.92
9676;BME280;4876;42.656;23.292;2022-12-07T10:35:30;94134.75;;;7.63;88.38
9676;BME280;4876;42.656;23.292;2022-12-07T10:37:59;94127.38;;;7.65;88.53
9676;BME280;4876;42.656;23.292;2022-12-07T10:40:30;94122.88;;;7.79;86.92
9676;BME280;4876;42.656;23.292;2022-12-07T10:43:13;94117.94;;;7.77;85.23
9676;BME280;4876;42.656;23.292;2022-12-07T10:45:59;94126.38;;;7.74;84.45
9676;BME280;4876;42.656;23.292;2022-12-07T10:48:36;94117.56;;;7.70;85.59
9676;BME280;4876;42.656;23.292;2022-12-07T10:51:10;94117.81;;;7.82;84.97
9676;BME280;4876;42.656;23.292;2022-12-07T10:53:48;94107.81;;;7.85;86.21
9676;BME280;4876;42.656;23.292;2022-12-07T10:56:30;94112.88;;;7.81;85.63
9676;BME280;4876;42.656;23.292;2022-12-07T10:59:15;94097.50;;;8.10;84.07
9676;BME280;4876;42.656;23.292;2022-12-07T11:01:48;94101.09;;;8.15;83.81
9676;BME280;4876;42.656;23.292;2022-12-07T11:04:26;94099.81;;;8.12;82.89
9676;BME280;4876;42.656;23.292;2022-12-07T11:07:02;94094.59;;;8.12;81.43
9676;BME280;4876;42.656;23.292;2022-12-07T11:09:49;94090.38;;;8.02;82.06
9676;BME280;4876;42.656;23.292;2022-12-07T11:12:28;94092.28;;;8.10;81.42
9676;BME280;4876;42.656;23.292;2022-12-07T11:15:01;94094.09;;;8.32;81.09
9676;BME280;4876;42.656;23.292;2022-12-07T11:17:35;94053.75;;;7.80;82.59
9676;BME280;4876;42.656;23.292;2022-12-07T11:20:17;94088.22;;;8.27;82.46
9676;BME280;4876;42.656;23.292;2022-12-07T11:22:52;94088.47;;;8.17;82.75
9676;BME280;4876;42.656;23.292;2022-12-07T11:25:26;94085.22;;;8.42;82.19
9676;BME280;4876;42.656;23.292;2022-12-07T11:28:09;94077.22;;;8.47;80.42
9676;BME280;4876;42.656;23.292;2022-12-07T11:30:48;94069.38;;;8.56;80.03
9676;BME280;4876;42.656;23.292;2022-12-07T11:33:19;94060.03;;;8.63;78.86
9676;BME280;4876;42.656;23.292;2022-12-07T11:36:03;94045.56;;;8.75;79.77
9676;BME280;4876;42.656;23.292;2022-12-07T11:38:42;94046.75;;;8.60;78.19
9676;BME280;4876;42.656;23.292;2022-12-07T11:41:10;94034.09;;;8.53;78.29
9676;BME280;4876;42.656;23.292;2022-12-07T11:43:54;94044.97;;;8.78;77.78
9676;BME280;4876;42.656;23.292;2022-12-07T11:46:26;94059.78;;;8.91;78.01
9676;BME280;4876;42.656;23.292;2022-12-07T11:49:00;94047.00;;;8.98;76.87
9676;BME280;4876;42.656;23.292;2022-12-07T11:51:30;94051.34;;;9.11;76.75
9676;BME280;4876;42.656;23.292;2022-12-07T11:54:02;94049.50;;;9.21;76.54
9676;BME280;4876;42.656;23.292;2022-12-07T11:56:30;94041.63;;;9.29;75.34
9676;BME280;4876;42.656;23.292;2022-12-07T11:59:09;93977.72;;;8.82;74.89
9676;BME280;4876;42.656;23.292;2022-12-07T12:01:47;94044.56;;;9.36;75.35
9676;BME280;4876;42.656;23.292;2022-12-07T12:04:25;94035.31;;;9.30;74.87
9676;BME280;4876;42.656;23.292;2022-12-07T12:06:56;94032.38;;;9.40;75.21
9676;BME280;4876;42.656;23.292;2022-12-07T12:09:27;94033.63;;;9.52;74.65
9676;BME280;4876;42.656;23.292;2022-12-07T12:14:59;94031.91;;;9.56;73.91
9676;BME280;4876;42.656;23.292;2022-12-07T12:17:59;94013.53;;;9.47;73.97
9676;BME280;4876;42.656;23.292;2022-12-07T12:20:31;94022.66;;;9.41;75.02
9676;BME280;4876;42.656;23.292;2022-12-07T12:23:04;94021.41;;;9.56;74.41
9676;BME280;4876;42.656;23.292;2022-12-07T12:25:38;94018.78;;;9.56;74.24
9676;BME280;4876;42.656;23.292;2022-12-07T12:28:20;94007.66;;;9.76;74.16
9676;BME280;4876;42.656;23.292;2022-12-07T12:31:07;94002.41;;;9.67;73.62
9676;BME280;4876;42.656;23.292;2022-12-07T12:33:37;94001.94;;;9.65;73.66
9676;BME280;4876;42.656;23.292;2022-12-07T12:36:25;93993.78;;;9.58;74.81
9676;BME280;4876;42.656;23.292;2022-12-07T12:39:12;93992.66;;;9.68;74.86
9676;BME280;4876;42.656;23.292;2022-12-07T12:41:53;93987.53;;;9.80;74.30
9676;BME280;4876;42.656;23.292;2022-12-07T12:45:03;93996.16;;;9.98;72.28
9676;BME280;4876;42.656;23.292;2022-12-07T12:47:58;93995.53;;;9.92;72.31
9676;BME280;4876;42.656;23.292;2022-12-07T12:50:29;93996.19;;;9.89;73.14
9676;BME280;4876;42.656;23.292;2022-12-07T12:53:05;93981.69;;;9.83;72.01
9676;BME280;4876;42.656;23.292;2022-12-07T12:56:09;93998.00;;;10.06;70.64
9676;BME280;4876;42.656;23.292;2022-12-07T12:58:40;93999.00;;;10.22;70.30
9676;BME280;4876;42.656;23.292;2022-12-07T13:04:39;93998.44;;;10.08;70.84
9676;BME280;4876;42.656;23.292;2022-12-07T13:10:38;93973.94;;;9.87;71.55
9676;BME280;4876;42.656;23.292;2022-12-07T13:13:29;93994.31;;;9.90;71.84
9676;BME280;4876;42.656;23.292;2022-12-07T13:18:56;93998.44;;;10.08;71.90
9676;BME280;4876;42.656;23.292;2022-12-07T13:21:42;93999.66;;;10.11;71.65
9676;BME280;4876;42.656;23.292;2022-12-07T13:24:12;94001.06;;;10.08;73.12
9676;BME280;4876;42.656;23.292;2022-12-07T13:26:41;94010.34;;;10.14;72.89
9676;BME280;4876;42.656;23.292;2022-12-07T13:29:12;93997.19;;;10.14;72.46
9676;BME280;4876;42.656;23.292;2022-12-07T13:31:40;93999.81;;;10.23;71.55
9676;BME280;4876;42.656;23.292;2022-12-07T13:34:31;93996.56;;;10.26;71.46
9676;BME280;4876;42.656;23.292;2022-12-07T13:36:58;93991.94;;;10.23;72.22
9676;BME280;4876;42.656;23.292;2022-12-07T13:39:28;93998.22;;;10.31;71.75
9676;BME280;4876;42.656;23.292;2022-12-07T13:41:56;93994.41;;;10.19;71.75
9676;BME280;4876;42.656;23.292;2022-12-07T13:44:24;93984.50;;;10.16;72.63
9676;BME280;4876;42.656;23.292;2022-12-07T13:46:57;93990.69;;;10.20;72.45
9676;BME280;4876;42.656;23.292;2022-12-07T13:49:28;93970.16;;;10.05;71.60
9676;BME280;4876;42.656;23.292;2022-12-07T13:52:14;93975.25;;;10.10;71.69
9676;BME280;4876;42.656;23.292;2022-12-07T13:54:45;93976.34;;;10.09;71.86